Detall de PIREP

Printer-friendly versionPDF version

[2016/08/13 10:31:00]
Flight IATA:CT1004
Pilot Number:012
Company ICAO:CAT
Aircraft Type:DC3/A
PAX:19
Aircraft Registration:PAX
Departing Airport: LIEA
Destination Airport: LFKJ
Alternate Airport:LFKS
Online: VATSIM
Route:VFR VIA FGI LFKO CT
Flight Level:A5000
No Slew and time accel
No pause
Crash detect
Detect pilot in Cockpit between each 30 and 45 minutes
10:31 Zero fuel Weight: 19890 Lbs, Fuel Weight: 1355 Lbs
10:31 VATSIM:LIEA 131020Z 03007KT 340V080 CAVOK 30/11 Q1023
10:31 VATSIM:LFKJ 131000Z 22010KT CAVOK 26/19 Q1023 NOSIG
10:31 SUMMER CHARTER
10:38 Parking Brakes off
10:44 Take-off
10:44 Take off Weight: 21220 Lbs
10:44 Wind: 032º @ 007 Knots Heading: 022º
10:44 POS N40º 37´ 33´´ E008º 17´ 13´´
10:45 Gear Up: 096 Knots
11:00 Wind:223º@009 Knots Heading: 009º Ground Speed: 159 Knots Altitude 3503 ft
11:15 Wind:220º@009 Knots Heading: 060º Ground Speed: 160 Knots Altitude 3503 ft
11:27 Flaps:1 at 113 Knots
11:28 Flaps:2 at 110 Knots
11:29 Gear Down: 100 Knots
11:29 Flaps:3 at 99 Knots
11:29 Flaps:4 at 88 Knots
11:30 Wind:218º@011 Knots Heading: 218º Ground Speed: 084 Knots Altitude 731 ft
11:31 TouchDown:Rate -107 ft/min Speed: 67 Knots
11:31 VATSIM:LFKJ 131100Z 21011KT 9999 FEW046 27/18 Q1023 NOSIG
11:31 Land
11:31 Wind:218º@011 Knots
11:31 Heading: 206º
11:31 Flight Duration: 00:46
11:31 Landing Weight: 20753 Lbs
11:31 POS N41º 55´ 24´´ E008º 48´ 07´´
11:33 Parking brakes on
11:33 Block to Block Duration: 00:55
11:33 Final Fuel: 857 Lbls
11:33 Spent Fuel: 498 Lbls
11:33 Flight Length: 112 NM
11:33 TOD Land Length: 112 NM

Exportar CSV

Powered by Drupal - Modified by Danger4k